sensor_id;sensor_type;location;lat;lon;timestamp;temperature;humidity
52187;DHT22;38161;53.020;6.598;2023-02-15T00:00:16;0.20;99.90
52187;DHT22;38161;53.020;6.598;2023-02-15T00:02:41;0.20;99.90
52187;DHT22;38161;53.020;6.598;2023-02-15T00:05:07;0.40;99.90
52187;DHT22;38161;53.020;6.598;2023-02-15T00:07:33;0.20;99.90
52187;DHT22;38161;53.020;6.598;2023-02-15T00:09:59;0.20;99.90
52187;DHT22;38161;53.020;6.598;2023-02-15T00:12:25;0.10;99.90
52187;DHT22;38161;53.020;6.598;2023-02-15T00:14:50;0.10;99.90
52187;DHT22;38161;53.020;6.598;2023-02-15T00:17:16;0.10;99.90
52187;DHT22;38161;53.020;6.598;2023-02-15T00:19:42;0.10;99.90
52187;DHT22;38161;53.020;6.598;2023-02-15T00:22:08;0.00;99.90
52187;DHT22;38161;53.020;6.598;2023-02-15T00:24:34;0.00;99.90
52187;DHT22;38161;53.020;6.598;2023-02-15T00:26:59;0.00;99.90
52187;DHT22;38161;53.020;6.598;2023-02-15T00:29:25;0.00;99.90
52187;DHT22;38161;53.020;6.598;2023-02-15T00:31:51;-0.10;99.90
52187;DHT22;38161;53.020;6.598;2023-02-15T00:34:22;0.00;99.90
52187;DHT22;38161;53.020;6.598;2023-02-15T00:36:49;0.00;99.90
52187;DHT22;38161;53.020;6.598;2023-02-15T00:39:16;-0.10;99.90
52187;DHT22;38161;53.020;6.598;2023-02-15T00:41:42;-0.10;99.90
52187;DHT22;38161;53.020;6.598;2023-02-15T00:44:08;-0.10;99.90
52187;DHT22;38161;53.020;6.598;2023-02-15T00:46:33;-0.10;99.90
52187;DHT22;38161;53.020;6.598;2023-02-15T00:49:00;-0.10;99.90
52187;DHT22;38161;53.020;6.598;2023-02-15T00:51:25;-0.20;99.90
52187;DHT22;38161;53.020;6.598;2023-02-15T00:53:51;-0.20;99.90
52187;DHT22;38161;53.020;6.598;2023-02-15T00:56:17;-0.20;99.90
52187;DHT22;38161;53.020;6.598;2023-02-15T00:58:43;0.10;99.90
52187;DHT22;38161;53.020;6.598;2023-02-15T01:01:17;-0.20;99.90
52187;DHT22;38161;53.020;6.598;2023-02-15T01:03:43;-0.20;99.90
52187;DHT22;38161;53.020;6.598;2023-02-15T01:06:10;-0.20;99.90
52187;DHT22;38161;53.020;6.598;2023-02-15T01:08:36;-0.20;99.90
52187;DHT22;38161;53.020;6.598;2023-02-15T01:11:30;0.00;99.90
52187;DHT22;38161;53.020;6.598;2023-02-15T01:13:57;-0.20;99.90
52187;DHT22;38161;53.020;6.598;2023-02-15T01:16:26;-0.20;99.90
52187;DHT22;38161;53.020;6.598;2023-02-15T01:18:52;-0.20;99.90
52187;DHT22;38161;53.020;6.598;2023-02-15T01:21:20;-0.20;99.90
52187;DHT22;38161;53.020;6.598;2023-02-15T01:23:46;-0.20;99.90
52187;DHT22;38161;53.020;6.598;2023-02-15T01:26:13;-0.10;99.90
52187;DHT22;38161;53.020;6.598;2023-02-15T01:28:39;-0.30;99.90
52187;DHT22;38161;53.020;6.598;2023-02-15T01:31:08;-0.30;99.90
52187;DHT22;38161;53.020;6.598;2023-02-15T01:33:35;-0.40;99.90
52187;DHT22;38161;53.020;6.598;2023-02-15T01:36:01;-0.40;99.90
52187;DHT22;38161;53.020;6.598;2023-02-15T01:38:27;-0.40;99.90
52187;DHT22;38161;53.020;6.598;2023-02-15T01:40:53;-0.40;99.90
52187;DHT22;38161;53.020;6.598;2023-02-15T01:43:45;-0.40;99.90
52187;DHT22;38161;53.020;6.598;2023-02-15T01:46:13;-0.40;99.90
52187;DHT22;38161;53.020;6.598;2023-02-15T01:48:45;-0.40;99.90
52187;DHT22;38161;53.020;6.598;2023-02-15T01:51:12;-0.40;99.90
52187;DHT22;38161;53.020;6.598;2023-02-15T01:53:43;-0.40;99.90
52187;DHT22;38161;53.020;6.598;2023-02-15T01:56:18;-0.40;99.90
52187;DHT22;38161;53.020;6.598;2023-02-15T01:58:45;-0.30;99.90
52187;DHT22;38161;53.020;6.598;2023-02-15T02:01:12;-0.40;99.90
52187;DHT22;38161;53.020;6.598;2023-02-15T02:04:23;-0.30;99.90
52187;DHT22;38161;53.020;6.598;2023-02-15T02:06:46;-0.50;99.90
52187;DHT22;38161;53.020;6.598;2023-02-15T02:09:13;-0.50;99.90
52187;DHT22;38161;53.020;6.598;2023-02-15T02:11:40;-0.50;99.90
52187;DHT22;38161;53.020;6.598;2023-02-15T02:14:07;-0.60;99.90
52187;DHT22;38161;53.020;6.598;2023-02-15T02:22:13;-0.70;99.90
52187;DHT22;38161;53.020;6.598;2023-02-15T02:39:33;-0.70;99.90
52187;DHT22;38161;53.020;6.598;2023-02-15T02:47:04;-0.70;99.90
52187;DHT22;38161;53.020;6.598;2023-02-15T02:49:39;-0.80;99.90
52187;DHT22;38161;53.020;6.598;2023-02-15T02:52:33;-0.80;99.90
52187;DHT22;38161;53.020;6.598;2023-02-15T02:54:54;-0.80;99.90
52187;DHT22;38161;53.020;6.598;2023-02-15T02:57:22;-0.80;99.90
52187;DHT22;38161;53.020;6.598;2023-02-15T02:59:49;-0.80;99.90
52187;DHT22;38161;53.020;6.598;2023-02-15T03:02:21;-0.70;99.90
52187;DHT22;38161;53.020;6.598;2023-02-15T03:04:53;-0.50;99.90
52187;DHT22;38161;53.020;6.598;2023-02-15T03:07:25;-0.80;99.90
52187;DHT22;38161;53.020;6.598;2023-02-15T03:09:56;-0.90;99.90
52187;DHT22;38161;53.020;6.598;2023-02-15T03:12:29;-0.90;99.90
52187;DHT22;38161;53.020;6.598;2023-02-15T03:17:55;-0.90;99.90
52187;DHT22;38161;53.020;6.598;2023-02-15T03:20:32;-1.00;99.90
52187;DHT22;38161;53.020;6.598;2023-02-15T03:23:14;-1.00;99.90
52187;DHT22;38161;53.020;6.598;2023-02-15T03:25:50;-1.00;99.90
52187;DHT22;38161;53.020;6.598;2023-02-15T03:28:42;-1.00;99.90
52187;DHT22;38161;53.020;6.598;2023-02-15T03:31:10;-1.10;99.90
52187;DHT22;38161;53.020;6.598;2023-02-15T03:33:40;-0.70;99.90
52187;DHT22;38161;53.020;6.598;2023-02-15T03:36:15;-1.10;99.90
52187;DHT22;38161;53.020;6.598;2023-02-15T03:41:35;-1.10;99.90
52187;DHT22;38161;53.020;6.598;2023-02-15T03:44:12;-1.10;99.90
52187;DHT22;38161;53.020;6.598;2023-02-15T03:49:26;-1.00;99.90
52187;DHT22;38161;53.020;6.598;2023-02-15T03:51:55;-1.00;99.90
52187;DHT22;38161;53.020;6.598;2023-02-15T03:54:28;-1.10;99.90
52187;DHT22;38161;53.020;6.598;2023-02-15T04:03:11;-1.20;99.90
52187;DHT22;38161;53.020;6.598;2023-02-15T04:05:38;-1.20;99.90
52187;DHT22;38161;53.020;6.598;2023-02-15T04:08:04;-1.20;99.90
52187;DHT22;38161;53.020;6.598;2023-02-15T04:10:30;-1.30;99.90
52187;DHT22;38161;53.020;6.598;2023-02-15T04:13:19;-1.40;99.90
52187;DHT22;38161;53.020;6.598;2023-02-15T04:15:45;-1.40;99.90
52187;DHT22;38161;53.020;6.598;2023-02-15T04:21:18;-1.40;99.90
52187;DHT22;38161;53.020;6.598;2023-02-15T04:24:03;-1.10;99.90
52187;DHT22;38161;53.020;6.598;2023-02-15T04:26:47;-1.30;99.90
52187;DHT22;38161;53.020;6.598;2023-02-15T04:29:15;-1.10;99.90
52187;DHT22;38161;53.020;6.598;2023-02-15T04:31:41;-1.20;99.90
52187;DHT22;38161;53.020;6.598;2023-02-15T04:34:08;-1.20;99.90
52187;DHT22;38161;53.020;6.598;2023-02-15T04:36:35;-1.20;99.90
52187;DHT22;38161;53.020;6.598;2023-02-15T04:39:00;-1.20;99.90
52187;DHT22;38161;53.020;6.598;2023-02-15T04:41:26;-1.10;99.90
52187;DHT22;38161;53.020;6.598;2023-02-15T04:43:52;-1.10;99.90
52187;DHT22;38161;53.020;6.598;2023-02-15T04:46:17;-1.20;99.90
52187;DHT22;38161;53.020;6.598;2023-02-15T04:48:43;-1.20;99.90
52187;DHT22;38161;53.020;6.598;2023-02-15T04:51:09;-1.20;99.90
52187;DHT22;38161;53.020;6.598;2023-02-15T04:53:35;-1.20;99.90
52187;DHT22;38161;53.020;6.598;2023-02-15T04:56:01;-1.20;99.90
52187;DHT22;38161;53.020;6.598;2023-02-15T04:58:27;-1.20;99.90
52187;DHT22;38161;53.020;6.598;2023-02-15T05:00:56;-1.20;99.90
52187;DHT22;38161;53.020;6.598;2023-02-15T05:03:22;-1.20;99.90
52187;DHT22;38161;53.020;6.598;2023-02-15T05:05:48;-1.20;99.90
52187;DHT22;38161;53.020;6.598;2023-02-15T05:08:14;-1.10;99.90
52187;DHT22;38161;53.020;6.598;2023-02-15T05:10:40;-1.20;99.90
52187;DHT22;38161;53.020;6.598;2023-02-15T05:13:06;-1.20;99.90
52187;DHT22;38161;53.020;6.598;2023-02-15T05:15:31;-1.30;99.90
52187;DHT22;38161;53.020;6.598;2023-02-15T05:17:57;-1.30;99.90
52187;DHT22;38161;53.020;6.598;2023-02-15T05:20:23;-1.30;99.90
52187;DHT22;38161;53.020;6.598;2023-02-15T05:22:48;-1.20;99.90
52187;DHT22;38161;53.020;6.598;2023-02-15T05:25:18;-1.20;99.90
52187;DHT22;38161;53.020;6.598;2023-02-15T05:28:02;-1.20;99.90
52187;DHT22;38161;53.020;6.598;2023-02-15T05:31:05;-1.10;99.90
52187;DHT22;38161;53.020;6.598;2023-02-15T05:33:32;-1.10;99.90
52187;DHT22;38161;53.020;6.598;2023-02-15T05:35:58;-1.10;99.90
52187;DHT22;38161;53.020;6.598;2023-02-15T05:38:24;-1.00;99.90
52187;DHT22;38161;53.020;6.598;2023-02-15T05:40:51;-1.00;99.90
52187;DHT22;38161;53.020;6.598;2023-02-15T05:43:17;-0.70;99.90
52187;DHT22;38161;53.020;6.598;2023-02-15T05:45:50;-0.90;99.90
52187;DHT22;38161;53.020;6.598;2023-02-15T05:48:18;-0.90;99.90
52187;DHT22;38161;53.020;6.598;2023-02-15T05:50:44;-0.90;99.90
52187;DHT22;38161;53.020;6.598;2023-02-15T05:53:10;-0.90;99.90
52187;DHT22;38161;53.020;6.598;2023-02-15T05:55:41;-0.90;99.90
52187;DHT22;38161;53.020;6.598;2023-02-15T05:58:07;-0.90;99.90
52187;DHT22;38161;53.020;6.598;2023-02-15T06:00:34;-0.90;99.90
52187;DHT22;38161;53.020;6.598;2023-02-15T06:03:00;-0.90;99.90
52187;DHT22;38161;53.020;6.598;2023-02-15T06:05:25;-0.70;99.90
52187;DHT22;38161;53.020;6.598;2023-02-15T06:07:51;-0.90;99.90
52187;DHT22;38161;53.020;6.598;2023-02-15T06:10:17;-0.90;99.90
52187;DHT22;38161;53.020;6.598;2023-02-15T06:12:44;-0.90;99.90
52187;DHT22;38161;53.020;6.598;2023-02-15T06:15:10;-0.90;99.90
52187;DHT22;38161;53.020;6.598;2023-02-15T06:17:36;-0.60;99.90
52187;DHT22;38161;53.020;6.598;2023-02-15T06:20:02;-0.80;99.90
52187;DHT22;38161;53.020;6.598;2023-02-15T06:22:28;-0.80;99.90
52187;DHT22;38161;53.020;6.598;2023-02-15T06:24:54;-0.90;99.90
52187;DHT22;38161;53.020;6.598;2023-02-15T06:27:20;-0.80;99.90
52187;DHT22;38161;53.020;6.598;2023-02-15T06:29:45;-0.80;99.90
52187;DHT22;38161;53.020;6.598;2023-02-15T06:32:11;-0.80;99.90
52187;DHT22;38161;53.020;6.598;2023-02-15T06:34:37;-0.80;99.90
52187;DHT22;38161;53.020;6.598;2023-02-15T06:37:02;-0.80;99.90
52187;DHT22;38161;53.020;6.598;2023-02-15T06:39:28;-0.80;99.90
52187;DHT22;38161;53.020;6.598;2023-02-15T06:41:54;-0.80;99.90
52187;DHT22;38161;53.020;6.598;2023-02-15T06:44:20;-0.50;99.90
52187;DHT22;38161;53.020;6.598;2023-02-15T06:46:45;-0.30;99.90
52187;DHT22;38161;53.020;6.598;2023-02-15T06:49:11;-0.60;99.90
52187;DHT22;38161;53.020;6.598;2023-02-15T06:51:37;-0.60;99.90
52187;DHT22;38161;53.020;6.598;2023-02-15T06:54:02;-0.60;99.90
52187;DHT22;38161;53.020;6.598;2023-02-15T06:56:29;-0.60;99.90
52187;DHT22;38161;53.020;6.598;2023-02-15T06:58:55;-0.60;99.90
52187;DHT22;38161;53.020;6.598;2023-02-15T07:01:20;-0.10;99.90
52187;DHT22;38161;53.020;6.598;2023-02-15T07:03:46;-0.60;99.90
52187;DHT22;38161;53.020;6.598;2023-02-15T07:06:12;-0.50;99.90
52187;DHT22;38161;53.020;6.598;2023-02-15T07:08:39;-0.40;99.90
52187;DHT22;38161;53.020;6.598;2023-02-15T07:11:05;-0.50;99.90
52187;DHT22;38161;53.020;6.598;2023-02-15T07:14:00;-0.50;99.90
52187;DHT22;38161;53.020;6.598;2023-02-15T07:16:26;-0.50;99.90
52187;DHT22;38161;53.020;6.598;2023-02-15T07:18:51;-0.40;99.90
52187;DHT22;38161;53.020;6.598;2023-02-15T07:21:17;-0.40;99.90
52187;DHT22;38161;53.020;6.598;2023-02-15T07:23:43;-0.30;99.90
52187;DHT22;38161;53.020;6.598;2023-02-15T07:26:08;-0.20;99.90
52187;DHT22;38161;53.020;6.598;2023-02-15T07:28:34;-0.10;99.90
52187;DHT22;38161;53.020;6.598;2023-02-15T07:31:04;-0.10;99.90
52187;DHT22;38161;53.020;6.598;2023-02-15T07:33:31;0.00;99.90
52187;DHT22;38161;53.020;6.598;2023-02-15T07:35:57;0.10;99.90
52187;DHT22;38161;53.020;6.598;2023-02-15T07:38:25;0.10;99.90
52187;DHT22;38161;53.020;6.598;2023-02-15T07:40:51;0.10;99.90
52187;DHT22;38161;53.020;6.598;2023-02-15T07:43:17;0.10;99.90
52187;DHT22;38161;53.020;6.598;2023-02-15T07:45:43;0.10;99.90
52187;DHT22;38161;53.020;6.598;2023-02-15T07:48:09;0.50;99.90
52187;DHT22;38161;53.020;6.598;2023-02-15T07:50:35;0.50;99.90
52187;DHT22;38161;53.020;6.598;2023-02-15T07:53:04;0.30;99.90
52187;DHT22;38161;53.020;6.598;2023-02-15T07:55:30;0.30;99.90
52187;DHT22;38161;53.020;6.598;2023-02-15T07:57:56;0.40;99.90
52187;DHT22;38161;53.020;6.598;2023-02-15T08:00:22;0.40;99.90
52187;DHT22;38161;53.020;6.598;2023-02-15T08:02:55;0.60;99.90
52187;DHT22;38161;53.020;6.598;2023-02-15T08:05:40;0.80;99.90
52187;DHT22;38161;53.020;6.598;2023-02-15T08:08:07;0.60;99.90
52187;DHT22;38161;53.020;6.598;2023-02-15T08:10:34;0.60;99.90
52187;DHT22;38161;53.020;6.598;2023-02-15T08:13:19;0.70;99.90
52187;DHT22;38161;53.020;6.598;2023-02-15T08:15:51;0.80;99.90
52187;DHT22;38161;53.020;6.598;2023-02-15T08:18:17;0.80;99.90
52187;DHT22;38161;53.020;6.598;2023-02-15T08:20:48;0.90;99.90
52187;DHT22;38161;53.020;6.598;2023-02-15T08:23:13;1.00;99.90
52187;DHT22;38161;53.020;6.598;2023-02-15T08:25:39;1.00;99.90
52187;DHT22;38161;53.020;6.598;2023-02-15T08:28:05;1.10;99.90
52187;DHT22;38161;53.020;6.598;2023-02-15T08:30:31;1.20;99.90
52187;DHT22;38161;53.020;6.598;2023-02-15T08:32:57;1.30;99.90
52187;DHT22;38161;53.020;6.598;2023-02-15T08:35:22;1.30;99.90
52187;DHT22;38161;53.020;6.598;2023-02-15T08:37:48;1.40;99.90
52187;DHT22;38161;53.020;6.598;2023-02-15T08:40:14;1.50;99.90
52187;DHT22;38161;53.020;6.598;2023-02-15T08:42:40;1.50;99.90
52187;DHT22;38161;53.020;6.598;2023-02-15T08:45:06;2.10;99.90
52187;DHT22;38161;53.020;6.598;2023-02-15T08:47:32;1.60;99.90
52187;DHT22;38161;53.020;6.598;2023-02-15T08:49:58;1.70;99.90
52187;DHT22;38161;53.020;6.598;2023-02-15T08:52:23;1.80;99.90
52187;DHT22;38161;53.020;6.598;2023-02-15T08:54:49;1.80;99.90
52187;DHT22;38161;53.020;6.598;2023-02-15T08:57:15;1.90;99.90
52187;DHT22;38161;53.020;6.598;2023-02-15T08:59:40;2.00;99.90
52187;DHT22;38161;53.020;6.598;2023-02-15T09:02:09;2.10;99.90
52187;DHT22;38161;53.020;6.598;2023-02-15T09:04:35;2.10;99.90
52187;DHT22;38161;53.020;6.598;2023-02-15T09:07:01;2.20;99.90
52187;DHT22;38161;53.020;6.598;2023-02-15T09:09:27;2.40;99.90
52187;DHT22;38161;53.020;6.598;2023-02-15T09:11:53;2.50;99.90
52187;DHT22;38161;53.020;6.598;2023-02-15T09:14:20;2.60;99.90
52187;DHT22;38161;53.020;6.598;2023-02-15T09:16:47;2.70;99.90
52187;DHT22;38161;53.020;6.598;2023-02-15T09:19:18;2.70;99.90
52187;DHT22;38161;53.020;6.598;2023-02-15T09:21:44;2.80;99.90
52187;DHT22;38161;53.020;6.598;2023-02-15T09:24:12;2.90;99.90
52187;DHT22;38161;53.020;6.598;2023-02-15T09:26:41;3.00;99.90
52187;DHT22;38161;53.020;6.598;2023-02-15T09:29:08;3.10;99.90
52187;DHT22;38161;53.020;6.598;2023-02-15T09:31:41;3.30;99.90
52187;DHT22;38161;53.020;6.598;2023-02-15T09:34:09;3.60;99.90
52187;DHT22;38161;53.020;6.598;2023-02-15T09:36:38;3.80;99.90
52187;DHT22;38161;53.020;6.598;2023-02-15T09:39:14;4.40;99.90
52187;DHT22;38161;53.020;6.598;2023-02-15T09:56:15;5.90;99.90
52187;DHT22;38161;53.020;6.598;2023-02-15T10:07:26;7.30;99.90
52187;DHT22;38161;53.020;6.598;2023-02-15T10:15:27;8.40;99.90
52187;DHT22;38161;53.020;6.598;2023-02-15T10:34:18;8.80;99.90
52187;DHT22;38161;53.020;6.598;2023-02-15T10:45:30;9.60;99.90
52187;DHT22;38161;53.020;6.598;2023-02-15T10:48:07;9.60;99.90
52187;DHT22;38161;53.020;6.598;2023-02-15T10:50:56;9.80;99.90
52187;DHT22;38161;53.020;6.598;2023-02-15T10:58:45;9.70;99.90
52187;DHT22;38161;53.020;6.598;2023-02-15T11:06:54;9.80;99.90
52187;DHT22;38161;53.020;6.598;2023-02-15T11:09:24;9.80;99.90
52187;DHT22;38161;53.020;6.598;2023-02-15T11:11:53;9.90;99.90
52187;DHT22;38161;53.020;6.598;2023-02-15T11:17:05;10.20;99.90
52187;DHT22;38161;53.020;6.598;2023-02-15T11:19:37;10.40;99.90
52187;DHT22;38161;53.020;6.598;2023-02-15T11:22:06;10.40;99.90
52187;DHT22;38161;53.020;6.598;2023-02-15T11:24:36;10.60;99.90
52187;DHT22;38161;53.020;6.598;2023-02-15T11:32:29;11.10;99.90
52187;DHT22;38161;53.020;6.598;2023-02-15T11:35:03;11.40;99.90
52187;DHT22;38161;53.020;6.598;2023-02-15T11:40:27;11.60;99.90
52187;DHT22;38161;53.020;6.598;2023-02-15T11:43:06;11.50;99.90
52187;DHT22;38161;53.020;6.598;2023-02-15T11:45:37;11.40;99.90
52187;DHT22;38161;53.020;6.598;2023-02-15T11:48:12;11.40;99.90
52187;DHT22;38161;53.020;6.598;2023-02-15T11:50:39;11.30;99.90
52187;DHT22;38161;53.020;6.598;2023-02-15T11:53:09;11.30;99.90
52187;DHT22;38161;53.020;6.598;2023-02-15T11:55:36;11.20;99.90
52187;DHT22;38161;53.020;6.598;2023-02-15T11:59:06;11.50;99.90
52187;DHT22;38161;53.020;6.598;2023-02-15T12:03:50;11.90;99.90
52187;DHT22;38161;53.020;6.598;2023-02-15T12:06:32;12.10;99.90
52187;DHT22;38161;53.020;6.598;2023-02-15T12:09:13;12.20;99.90
52187;DHT22;38161;53.020;6.598;2023-02-15T12:11:43;12.30;99.90
52187;DHT22;38161;53.020;6.598;2023-02-15T12:14:12;12.30;99.90
52187;DHT22;38161;53.020;6.598;2023-02-15T12:16:45;12.20;99.90
52187;DHT22;38161;53.020;6.598;2023-02-15T12:19:37;12.10;99.90
52187;DHT22;38161;53.020;6.598;2023-02-15T12:22:06;12.10;99.90
52187;DHT22;38161;53.020;6.598;2023-02-15T12:24:46;12.00;99.90
52187;DHT22;38161;53.020;6.598;2023-02-15T12:27:16;12.20;99.90
52187;DHT22;38161;53.020;6.598;2023-02-15T12:29:47;12.20;99.90
52187;DHT22;38161;53.020;6.598;2023-02-15T12:32:19;12.20;99.90
52187;DHT22;38161;53.020;6.598;2023-02-15T12:34:48;12.10;99.90
52187;DHT22;38161;53.020;6.598;2023-02-15T12:37:25;12.40;99.90
52187;DHT22;38161;53.020;6.598;2023-02-15T12:39:57;12.60;99.90
52187;DHT22;38161;53.020;6.598;2023-02-15T12:42:24;12.40;99.90
52187;DHT22;38161;53.020;6.598;2023-02-15T12:45:01;12.40;99.90
52187;DHT22;38161;53.020;6.598;2023-02-15T12:47:28;12.10;99.90
52187;DHT22;38161;53.020;6.598;2023-02-15T12:50:22;12.10;99.90
52187;DHT22;38161;53.020;6.598;2023-02-15T12:52:50;12.20;99.90
52187;DHT22;38161;53.020;6.598;2023-02-15T12:55:26;12.20;99.90
52187;DHT22;38161;53.020;6.598;2023-02-15T12:58:17;12.10;99.90
52187;DHT22;38161;53.020;6.598;2023-02-15T13:00:44;12.00;99.90
52187;DHT22;38161;53.020;6.598;2023-02-15T13:03:23;11.90;99.90
52187;DHT22;38161;53.020;6.598;2023-02-15T13:05:54;11.90;99.90
52187;DHT22;38161;53.020;6.598;2023-02-15T13:08:28;11.80;99.90
52187;DHT22;38161;53.020;6.598;2023-02-15T13:11:10;11.60;99.90
52187;DHT22;38161;53.020;6.598;2023-02-15T13:13:58;11.50;99.90
52187;DHT22;38161;53.020;6.598;2023-02-15T13:16:36;11.60;99.90
52187;DHT22;38161;53.020;6.598;2023-02-15T13:19:14;11.40;99.90
52187;DHT22;38161;53.020;6.598;2023-02-15T13:21:44;11.50;99.90
52187;DHT22;38161;53.020;6.598;2023-02-15T13:24:34;11.40;99.90
52187;DHT22;38161;53.020;6.598;2023-02-15T13:27:01;11.50;99.90
52187;DHT22;38161;53.020;6.598;2023-02-15T13:29:30;11.40;99.90
52187;DHT22;38161;53.020;6.598;2023-02-15T13:31:57;11.30;99.90
52187;DHT22;38161;53.020;6.598;2023-02-15T13:34:34;11.30;99.90
52187;DHT22;38161;53.020;6.598;2023-02-15T13:40:00;11.20;99.90
52187;DHT22;38161;53.020;6.598;2023-02-15T13:42:58;11.10;99.90
52187;DHT22;38161;53.020;6.598;2023-02-15T14:00:22;11.00;99.90
52187;DHT22;38161;53.020;6.598;2023-02-15T14:06:03;10.90;99.90
52187;DHT22;38161;53.020;6.598;2023-02-15T14:08:51;10.90;99.90
52187;DHT22;38161;53.020;6.598;2023-02-15T14:17:26;10.70;99.90
52187;DHT22;38161;53.020;6.598;2023-02-15T14:23:02;10.60;99.90
52187;DHT22;38161;53.020;6.598;2023-02-15T14:25:45;10.60;99.90
52187;DHT22;38161;53.020;6.598;2023-02-15T14:28:21;10.60;99.90
52187;DHT22;38161;53.020;6.598;2023-02-15T14:30:54;10.60;99.90
52187;DHT22;38161;53.020;6.598;2023-02-15T14:35:46;10.50;99.90
52187;DHT22;38161;53.020;6.598;2023-02-15T14:44:26;10.30;99.90
52187;DHT22;38161;53.020;6.598;2023-02-15T14:47:04;10.30;99.90
52187;DHT22;38161;53.020;6.598;2023-02-15T14:49:33;10.30;99.90
52187;DHT22;38161;53.020;6.598;2023-02-15T14:59:50;10.20;99.90
52187;DHT22;38161;53.020;6.598;2023-02-15T15:07:25;10.20;99.90
52187;DHT22;38161;53.020;6.598;2023-02-15T15:10:47;10.20;99.90
52187;DHT22;38161;53.020;6.598;2023-02-15T15:12:53;10.20;99.90
52187;DHT22;38161;53.020;6.598;2023-02-15T15:36:59;9.90;99.90
52187;DHT22;38161;53.020;6.598;2023-02-15T15:46:28;9.80;99.90
52187;DHT22;38161;53.020;6.598;2023-02-15T15:48:38;9.70;99.90
52187;DHT22;38161;53.020;6.598;2023-02-15T15:51:34;9.70;99.90
52187;DHT22;38161;53.020;6.598;2023-02-15T15:54:04;9.70;99.90
52187;DHT22;38161;53.020;6.598;2023-02-15T15:56:35;9.60;99.90
52187;DHT22;38161;53.020;6.598;2023-02-15T15:59:23;9.60;99.90
52187;DHT22;38161;53.020;6.598;2023-02-15T16:01:50;9.50;99.90
52187;DHT22;38161;53.020;6.598;2023-02-15T16:04:28;9.40;99.90
52187;DHT22;38161;53.020;6.598;2023-02-15T16:06:56;9.30;99.90
52187;DHT22;38161;53.020;6.598;2023-02-15T16:09:25;9.30;99.90
52187;DHT22;38161;53.020;6.598;2023-02-15T16:11:53;9.20;99.90
52187;DHT22;38161;53.020;6.598;2023-02-15T16:14:30;9.20;99.90
52187;DHT22;38161;53.020;6.598;2023-02-15T16:16:58;9.20;99.90
52187;DHT22;38161;53.020;6.598;2023-02-15T16:19:34;9.10;99.90
52187;DHT22;38161;53.020;6.598;2023-02-15T16:22:02;9.10;99.90
52187;DHT22;38161;53.020;6.598;2023-02-15T16:27:39;9.00;99.90
52187;DHT22;38161;53.020;6.598;2023-02-15T16:30:25;9.00;99.90
52187;DHT22;38161;53.020;6.598;2023-02-15T16:33:03;8.90;99.90
52187;DHT22;38161;53.020;6.598;2023-02-15T16:35:29;8.80;99.90
52187;DHT22;38161;53.020;6.598;2023-02-15T16:37:55;8.80;99.90
52187;DHT22;38161;53.020;6.598;2023-02-15T16:43:15;8.60;99.90
52187;DHT22;38161;53.020;6.598;2023-02-15T16:45:41;8.60;99.90
52187;DHT22;38161;53.020;6.598;2023-02-15T16:48:27;8.50;99.90
52187;DHT22;38161;53.020;6.598;2023-02-15T16:50:56;8.40;99.90
52187;DHT22;38161;53.020;6.598;2023-02-15T16:53:29;8.30;99.90
52187;DHT22;38161;53.020;6.598;2023-02-15T16:55:58;8.30;99.90
52187;DHT22;38161;53.020;6.598;2023-02-15T16:58:44;8.20;99.90
52187;DHT22;38161;53.020;6.598;2023-02-15T17:01:13;8.20;99.90
52187;DHT22;38161;53.020;6.598;2023-02-15T17:03:41;8.10;99.90
52187;DHT22;38161;53.020;6.598;2023-02-15T17:06:26;8.10;99.90
52187;DHT22;38161;53.020;6.598;2023-02-15T17:09:13;8.10;99.90
52187;DHT22;38161;53.020;6.598;2023-02-15T17:11:44;8.10;99.90
52187;DHT22;38161;53.020;6.598;2023-02-15T17:14:12;8.10;99.90
52187;DHT22;38161;53.020;6.598;2023-02-15T17:16:48;8.10;99.90
52187;DHT22;38161;53.020;6.598;2023-02-15T17:21:50;8.10;99.90
52187;DHT22;38161;53.020;6.598;2023-02-15T17:24:25;8.10;99.90
52187;DHT22;38161;53.020;6.598;2023-02-15T17:26:54;8.10;99.90
52187;DHT22;38161;53.020;6.598;2023-02-15T17:29:36;8.00;99.90
52187;DHT22;38161;53.020;6.598;2023-02-15T17:32:02;8.00;99.90
52187;DHT22;38161;53.020;6.598;2023-02-15T17:37:23;8.00;99.90
52187;DHT22;38161;53.020;6.598;2023-02-15T17:39:49;8.00;99.90
52187;DHT22;38161;53.020;6.598;2023-02-15T17:42:14;8.00;99.90
52187;DHT22;38161;53.020;6.598;2023-02-15T17:44:40;8.00;99.90
52187;DHT22;38161;53.020;6.598;2023-02-15T17:47:06;7.90;99.90
52187;DHT22;38161;53.020;6.598;2023-02-15T17:49:31;7.80;99.90
52187;DHT22;38161;53.020;6.598;2023-02-15T17:52:01;7.80;99.90
52187;DHT22;38161;53.020;6.598;2023-02-15T17:54:27;7.80;99.90
52187;DHT22;38161;53.020;6.598;2023-02-15T17:57:13;7.70;99.90
52187;DHT22;38161;53.020;6.598;2023-02-15T17:59:40;7.70;99.90
52187;DHT22;38161;53.020;6.598;2023-02-15T18:02:24;7.70;99.90
52187;DHT22;38161;53.020;6.598;2023-02-15T18:05:13;7.70;99.90
52187;DHT22;38161;53.020;6.598;2023-02-15T18:07:57;7.60;99.90
52187;DHT22;38161;53.020;6.598;2023-02-15T18:10:42;7.60;99.90
52187;DHT22;38161;53.020;6.598;2023-02-15T18:13:26;7.60;99.90
52187;DHT22;38161;53.020;6.598;2023-02-15T18:15:52;7.60;99.90
52187;DHT22;38161;53.020;6.598;2023-02-15T18:18:18;7.50;99.90
52187;DHT22;38161;53.020;6.598;2023-02-15T18:20:43;7.50;99.90
52187;DHT22;38161;53.020;6.598;2023-02-15T18:23:13;7.50;99.90
52187;DHT22;38161;53.020;6.598;2023-02-15T18:25:39;7.40;99.90
52187;DHT22;38161;53.020;6.598;2023-02-15T18:28:05;7.40;99.90
52187;DHT22;38161;53.020;6.598;2023-02-15T18:30:31;7.30;99.90
52187;DHT22;38161;53.020;6.598;2023-02-15T18:32:58;7.30;99.90
52187;DHT22;38161;53.020;6.598;2023-02-15T18:35:30;7.30;99.90
52187;DHT22;38161;53.020;6.598;2023-02-15T18:37:57;7.30;99.90
52187;DHT22;38161;53.020;6.598;2023-02-15T18:40:24;7.30;99.90
52187;DHT22;38161;53.020;6.598;2023-02-15T18:42:50;7.20;99.90
52187;DHT22;38161;53.020;6.598;2023-02-15T18:45:22;7.20;99.90
52187;DHT22;38161;53.020;6.598;2023-02-15T18:47:49;7.10;99.90
52187;DHT22;38161;53.020;6.598;2023-02-15T18:50:17;7.10;99.90
52187;DHT22;38161;53.020;6.598;2023-02-15T18:52:45;7.10;99.90
52187;DHT22;38161;53.020;6.598;2023-02-15T18:55:20;7.00;99.90
52187;DHT22;38161;53.020;6.598;2023-02-15T18:57:48;7.10;99.90
52187;DHT22;38161;53.020;6.598;2023-02-15T19:00:21;7.10;99.90
52187;DHT22;38161;53.020;6.598;2023-02-15T19:02:49;7.00;99.90
52187;DHT22;38161;53.020;6.598;2023-02-15T19:05:15;7.00;99.90
52187;DHT22;38161;53.020;6.598;2023-02-15T19:07:43;7.00;99.90
52187;DHT22;38161;53.020;6.598;2023-02-15T19:10:16;7.00;99.90
52187;DHT22;38161;53.020;6.598;2023-02-15T19:12:42;7.00;99.90
52187;DHT22;38161;53.020;6.598;2023-02-15T19:15:16;7.00;99.90
52187;DHT22;38161;53.020;6.598;2023-02-15T19:17:42;6.90;99.90
52187;DHT22;38161;53.020;6.598;2023-02-15T19:20:35;6.90;99.90
52187;DHT22;38161;53.020;6.598;2023-02-15T19:23:01;6.90;99.90
52187;DHT22;38161;53.020;6.598;2023-02-15T19:25:30;6.80;99.90
52187;DHT22;38161;53.020;6.598;2023-02-15T19:27:57;6.90;99.90
52187;DHT22;38161;53.020;6.598;2023-02-15T19:30:29;6.80;99.90